sensor_id;sensor_type;location;lat;lon;timestamp;P1;durP1;ratioP1;P2;durP2;ratioP2
53044;SDS011;38930;52.766;6.884;2023-04-08T00:02:04;8.77;;;5.50;;
53044;SDS011;38930;52.766;6.884;2023-04-08T00:04:29;9.23;;;5.95;;
53044;SDS011;38930;52.766;6.884;2023-04-08T00:06:55;9.13;;;6.88;;
53044;SDS011;38930;52.766;6.884;2023-04-08T00:09:21;8.45;;;6.28;;
53044;SDS011;38930;52.766;6.884;2023-04-08T00:11:47;8.73;;;5.75;;
53044;SDS011;38930;52.766;6.884;2023-04-08T00:14:12;10.15;;;6.00;;
53044;SDS011;38930;52.766;6.884;2023-04-08T00:16:38;17.00;;;6.13;;
53044;SDS011;38930;52.766;6.884;2023-04-08T00:19:04;12.40;;;7.30;;
53044;SDS011;38930;52.766;6.884;2023-04-08T00:21:30;11.48;;;6.65;;
53044;SDS011;38930;52.766;6.884;2023-04-08T00:23:56;11.60;;;6.57;;
53044;SDS011;38930;52.766;6.884;2023-04-08T00:26:22;9.90;;;6.00;;
53044;SDS011;38930;52.766;6.884;2023-04-08T00:28:48;9.55;;;6.28;;
53044;SDS011;38930;52.766;6.884;2023-04-08T00:31:13;11.15;;;6.47;;
53044;SDS011;38930;52.766;6.884;2023-04-08T00:33:39;9.23;;;6.10;;
53044;SDS011;38930;52.766;6.884;2023-04-08T00:36:05;9.98;;;6.85;;
53044;SDS011;38930;52.766;6.884;2023-04-08T00:38:30;11.13;;;7.07;;
53044;SDS011;38930;52.766;6.884;2023-04-08T00:40:56;11.02;;;6.97;;
53044;SDS011;38930;52.766;6.884;2023-04-08T00:43:22;13.33;;;7.10;;
53044;SDS011;38930;52.766;6.884;2023-04-08T00:45:48;12.18;;;6.70;;
53044;SDS011;38930;52.766;6.884;2023-04-08T00:48:14;10.88;;;7.28;;
53044;SDS011;38930;52.766;6.884;2023-04-08T00:50:39;10.63;;;7.10;;
53044;SDS011;38930;52.766;6.884;2023-04-08T00:53:07;12.13;;;6.70;;
53044;SDS011;38930;52.766;6.884;2023-04-08T00:55:34;11.27;;;6.50;;
53044;SDS011;38930;52.766;6.884;2023-04-08T00:57:59;12.82;;;7.32;;
53044;SDS011;38930;52.766;6.884;2023-04-08T01:00:25;12.00;;;6.75;;
53044;SDS011;38930;52.766;6.884;2023-04-08T01:08:04;13.32;;;7.57;;
53044;SDS011;38930;52.766;6.884;2023-04-08T01:10:33;12.93;;;8.45;;
53044;SDS011;38930;52.766;6.884;2023-04-08T01:13:04;12.90;;;7.75;;
53044;SDS011;38930;52.766;6.884;2023-04-08T01:15:36;13.20;;;8.13;;
53044;SDS011;38930;52.766;6.884;2023-04-08T01:18:05;13.90;;;8.05;;
53044;SDS011;38930;52.766;6.884;2023-04-08T01:20:32;14.70;;;7.75;;
53044;SDS011;38930;52.766;6.884;2023-04-08T01:25:46;16.77;;;8.63;;
53044;SDS011;38930;52.766;6.884;2023-04-08T01:28:19;13.00;;;8.77;;
53044;SDS011;38930;52.766;6.884;2023-04-08T01:30:48;13.18;;;9.20;;
53044;SDS011;38930;52.766;6.884;2023-04-08T01:35:40;15.13;;;8.50;;
53044;SDS011;38930;52.766;6.884;2023-04-08T01:38:08;14.45;;;8.38;;
53044;SDS011;38930;52.766;6.884;2023-04-08T01:40:35;17.83;;;9.23;;
53044;SDS011;38930;52.766;6.884;2023-04-08T01:43:03;15.43;;;8.05;;
53044;SDS011;38930;52.766;6.884;2023-04-08T01:45:31;11.65;;;8.05;;
53044;SDS011;38930;52.766;6.884;2023-04-08T01:47:57;15.90;;;8.77;;
53044;SDS011;38930;52.766;6.884;2023-04-08T01:50:25;13.68;;;8.45;;
53044;SDS011;38930;52.766;6.884;2023-04-08T01:52:52;12.93;;;8.38;;
53044;SDS011;38930;52.766;6.884;2023-04-08T01:55:19;14.00;;;8.60;;
53044;SDS011;38930;52.766;6.884;2023-04-08T01:57:47;15.68;;;9.43;;
53044;SDS011;38930;52.766;6.884;2023-04-08T02:00:16;12.88;;;8.07;;
53044;SDS011;38930;52.766;6.884;2023-04-08T02:02:44;13.48;;;9.02;;
53044;SDS011;38930;52.766;6.884;2023-04-08T02:05:11;14.05;;;8.88;;
53044;SDS011;38930;52.766;6.884;2023-04-08T02:07:37;12.38;;;8.15;;
53044;SDS011;38930;52.766;6.884;2023-04-08T02:10:03;13.52;;;8.32;;
53044;SDS011;38930;52.766;6.884;2023-04-08T02:12:29;15.10;;;9.02;;
53044;SDS011;38930;52.766;6.884;2023-04-08T02:14:56;14.82;;;9.20;;
53044;SDS011;38930;52.766;6.884;2023-04-08T02:25:22;12.90;;;8.93;;
53044;SDS011;38930;52.766;6.884;2023-04-08T02:27:49;14.35;;;9.48;;
53044;SDS011;38930;52.766;6.884;2023-04-08T02:30:17;14.60;;;9.15;;
53044;SDS011;38930;52.766;6.884;2023-04-08T02:32:44;14.90;;;9.93;;
53044;SDS011;38930;52.766;6.884;2023-04-08T02:35:11;16.05;;;9.90;;
53044;SDS011;38930;52.766;6.884;2023-04-08T02:37:38;15.23;;;9.88;;
53044;SDS011;38930;52.766;6.884;2023-04-08T02:40:20;16.58;;;9.93;;
53044;SDS011;38930;52.766;6.884;2023-04-08T02:42:49;16.30;;;10.45;;
53044;SDS011;38930;52.766;6.884;2023-04-08T02:45:15;18.33;;;9.30;;
53044;SDS011;38930;52.766;6.884;2023-04-08T02:47:41;15.52;;;9.85;;
53044;SDS011;38930;52.766;6.884;2023-04-08T02:50:07;17.17;;;9.55;;
53044;SDS011;38930;52.766;6.884;2023-04-08T02:52:33;17.17;;;10.40;;
53044;SDS011;38930;52.766;6.884;2023-04-08T02:54:58;18.42;;;9.90;;
53044;SDS011;38930;52.766;6.884;2023-04-08T02:57:24;17.00;;;9.88;;
53044;SDS011;38930;52.766;6.884;2023-04-08T02:59:50;21.30;;;11.40;;
53044;SDS011;38930;52.766;6.884;2023-04-08T03:02:15;15.30;;;10.23;;
53044;SDS011;38930;52.766;6.884;2023-04-08T03:04:41;17.17;;;10.93;;
53044;SDS011;38930;52.766;6.884;2023-04-08T03:07:07;17.92;;;11.00;;
53044;SDS011;38930;52.766;6.884;2023-04-08T03:09:32;18.55;;;11.13;;
53044;SDS011;38930;52.766;6.884;2023-04-08T03:11:58;17.05;;;11.25;;
53044;SDS011;38930;52.766;6.884;2023-04-08T03:14:23;16.50;;;10.23;;
53044;SDS011;38930;52.766;6.884;2023-04-08T03:16:49;15.50;;;10.60;;
53044;SDS011;38930;52.766;6.884;2023-04-08T03:19:15;21.55;;;11.63;;
53044;SDS011;38930;52.766;6.884;2023-04-08T03:21:40;20.83;;;12.02;;
53044;SDS011;38930;52.766;6.884;2023-04-08T03:24:06;17.10;;;11.23;;
53044;SDS011;38930;52.766;6.884;2023-04-08T03:26:31;20.42;;;11.07;;
53044;SDS011;38930;52.766;6.884;2023-04-08T03:28:57;17.02;;;11.32;;
53044;SDS011;38930;52.766;6.884;2023-04-08T03:31:23;20.42;;;11.98;;
53044;SDS011;38930;52.766;6.884;2023-04-08T03:33:48;21.00;;;11.48;;
53044;SDS011;38930;52.766;6.884;2023-04-08T03:36:14;18.20;;;11.25;;
53044;SDS011;38930;52.766;6.884;2023-04-08T03:38:40;18.85;;;11.70;;
53044;SDS011;38930;52.766;6.884;2023-04-08T03:41:05;22.55;;;13.05;;
53044;SDS011;38930;52.766;6.884;2023-04-08T03:43:31;18.00;;;10.98;;
53044;SDS011;38930;52.766;6.884;2023-04-08T03:45:57;19.48;;;11.23;;
53044;SDS011;38930;52.766;6.884;2023-04-08T03:48:22;18.90;;;11.93;;
53044;SDS011;38930;52.766;6.884;2023-04-08T03:50:48;24.33;;;12.73;;
53044;SDS011;38930;52.766;6.884;2023-04-08T03:53:13;20.67;;;12.43;;
53044;SDS011;38930;52.766;6.884;2023-04-08T03:55:39;22.95;;;13.32;;
53044;SDS011;38930;52.766;6.884;2023-04-08T03:58:05;19.90;;;12.23;;
53044;SDS011;38930;52.766;6.884;2023-04-08T04:00:30;21.33;;;12.43;;
53044;SDS011;38930;52.766;6.884;2023-04-08T04:02:56;19.90;;;13.05;;
53044;SDS011;38930;52.766;6.884;2023-04-08T04:05:21;20.33;;;12.25;;
53044;SDS011;38930;52.766;6.884;2023-04-08T04:07:47;22.30;;;12.85;;
53044;SDS011;38930;52.766;6.884;2023-04-08T04:10:13;23.17;;;12.02;;
53044;SDS011;38930;52.766;6.884;2023-04-08T04:12:38;25.45;;;13.23;;
53044;SDS011;38930;52.766;6.884;2023-04-08T04:15:04;21.92;;;12.77;;
53044;SDS011;38930;52.766;6.884;2023-04-08T04:17:30;22.00;;;12.70;;
53044;SDS011;38930;52.766;6.884;2023-04-08T04:19:56;22.67;;;12.43;;
53044;SDS011;38930;52.766;6.884;2023-04-08T04:22:21;21.27;;;12.55;;
53044;SDS011;38930;52.766;6.884;2023-04-08T04:24:47;23.73;;;12.18;;
53044;SDS011;38930;52.766;6.884;2023-04-08T04:27:13;20.75;;;11.85;;
53044;SDS011;38930;52.766;6.884;2023-04-08T04:29:41;20.88;;;12.35;;
53044;SDS011;38930;52.766;6.884;2023-04-08T04:32:07;21.48;;;12.15;;
53044;SDS011;38930;52.766;6.884;2023-04-08T04:34:33;19.90;;;12.13;;
53044;SDS011;38930;52.766;6.884;2023-04-08T04:36:59;21.75;;;12.65;;
53044;SDS011;38930;52.766;6.884;2023-04-08T04:39:24;19.55;;;11.38;;
53044;SDS011;38930;52.766;6.884;2023-04-08T04:41:50;21.02;;;12.05;;
53044;SDS011;38930;52.766;6.884;2023-04-08T04:44:16;20.40;;;11.57;;
53044;SDS011;38930;52.766;6.884;2023-04-08T04:46:41;21.90;;;11.95;;
53044;SDS011;38930;52.766;6.884;2023-04-08T04:49:07;21.65;;;12.88;;
53044;SDS011;38930;52.766;6.884;2023-04-08T04:51:32;22.58;;;12.45;;
53044;SDS011;38930;52.766;6.884;2023-04-08T04:53:58;20.83;;;12.40;;
53044;SDS011;38930;52.766;6.884;2023-04-08T04:56:24;21.13;;;13.00;;
53044;SDS011;38930;52.766;6.884;2023-04-08T05:01:16;23.25;;;12.50;;
53044;SDS011;38930;52.766;6.884;2023-04-08T05:03:42;21.63;;;12.48;;
53044;SDS011;38930;52.766;6.884;2023-04-08T05:06:07;25.77;;;12.80;;
53044;SDS011;38930;52.766;6.884;2023-04-08T05:08:33;23.90;;;13.00;;
53044;SDS011;38930;52.766;6.884;2023-04-08T05:10:58;21.17;;;13.10;;
53044;SDS011;38930;52.766;6.884;2023-04-08T05:13:26;23.65;;;13.13;;
53044;SDS011;38930;52.766;6.884;2023-04-08T05:15:52;23.63;;;13.80;;
53044;SDS011;38930;52.766;6.884;2023-04-08T05:18:18;24.52;;;12.95;;
53044;SDS011;38930;52.766;6.884;2023-04-08T05:20:44;26.48;;;14.23;;
53044;SDS011;38930;52.766;6.884;2023-04-08T05:23:10;24.00;;;13.33;;
53044;SDS011;38930;52.766;6.884;2023-04-08T05:25:36;26.50;;;13.52;;
53044;SDS011;38930;52.766;6.884;2023-04-08T05:28:02;21.55;;;12.68;;
53044;SDS011;38930;52.766;6.884;2023-04-08T05:30:28;26.50;;;13.10;;
53044;SDS011;38930;52.766;6.884;2023-04-08T05:32:54;27.00;;;13.60;;
53044;SDS011;38930;52.766;6.884;2023-04-08T05:35:20;25.10;;;13.20;;
53044;SDS011;38930;52.766;6.884;2023-04-08T05:37:45;30.15;;;16.52;;
53044;SDS011;38930;52.766;6.884;2023-04-08T05:40:14;25.77;;;14.25;;
53044;SDS011;38930;52.766;6.884;2023-04-08T05:42:40;23.73;;;14.18;;
53044;SDS011;38930;52.766;6.884;2023-04-08T05:45:06;23.23;;;13.52;;
53044;SDS011;38930;52.766;6.884;2023-04-08T05:47:34;21.75;;;12.20;;
53044;SDS011;38930;52.766;6.884;2023-04-08T05:49:59;23.42;;;13.57;;
53044;SDS011;38930;52.766;6.884;2023-04-08T05:52:25;22.70;;;13.27;;
53044;SDS011;38930;52.766;6.884;2023-04-08T05:54:50;24.95;;;13.27;;
53044;SDS011;38930;52.766;6.884;2023-04-08T05:57:16;24.90;;;14.75;;
53044;SDS011;38930;52.766;6.884;2023-04-08T05:59:41;23.50;;;14.23;;
53044;SDS011;38930;52.766;6.884;2023-04-08T06:02:07;22.17;;;12.68;;
53044;SDS011;38930;52.766;6.884;2023-04-08T06:04:33;23.90;;;13.65;;
53044;SDS011;38930;52.766;6.884;2023-04-08T06:06:58;27.52;;;13.40;;
53044;SDS011;38930;52.766;6.884;2023-04-08T06:09:26;24.83;;;13.48;;
53044;SDS011;38930;52.766;6.884;2023-04-08T06:11:52;22.52;;;12.98;;
53044;SDS011;38930;52.766;6.884;2023-04-08T06:14:18;23.30;;;13.30;;
53044;SDS011;38930;52.766;6.884;2023-04-08T06:16:44;26.67;;;14.30;;
53044;SDS011;38930;52.766;6.884;2023-04-08T06:19:10;22.77;;;13.60;;
53044;SDS011;38930;52.766;6.884;2023-04-08T06:21:36;26.33;;;14.00;;
53044;SDS011;38930;52.766;6.884;2023-04-08T06:24:01;22.25;;;13.35;;
53044;SDS011;38930;52.766;6.884;2023-04-08T06:26:27;22.13;;;12.18;;
53044;SDS011;38930;52.766;6.884;2023-04-08T06:28:53;25.42;;;14.77;;
53044;SDS011;38930;52.766;6.884;2023-04-08T06:31:18;28.58;;;13.75;;
53044;SDS011;38930;52.766;6.884;2023-04-08T06:33:44;25.60;;;13.52;;
53044;SDS011;38930;52.766;6.884;2023-04-08T06:36:09;25.63;;;14.68;;
53044;SDS011;38930;52.766;6.884;2023-04-08T06:38:37;25.10;;;14.18;;
53044;SDS011;38930;52.766;6.884;2023-04-08T06:43:29;23.73;;;13.80;;
53044;SDS011;38930;52.766;6.884;2023-04-08T06:45:55;32.10;;;13.18;;
53044;SDS011;38930;52.766;6.884;2023-04-08T06:48:21;31.27;;;14.38;;
53044;SDS011;38930;52.766;6.884;2023-04-08T06:50:52;24.85;;;14.00;;
53044;SDS011;38930;52.766;6.884;2023-04-08T06:55:44;25.67;;;14.25;;
53044;SDS011;38930;52.766;6.884;2023-04-08T06:58:10;26.45;;;14.38;;
53044;SDS011;38930;52.766;6.884;2023-04-08T07:00:36;27.80;;;13.93;;
53044;SDS011;38930;52.766;6.884;2023-04-08T07:03:02;28.00;;;13.27;;
53044;SDS011;38930;52.766;6.884;2023-04-08T07:05:27;29.52;;;14.63;;
53044;SDS011;38930;52.766;6.884;2023-04-08T07:07:53;24.55;;;14.05;;
53044;SDS011;38930;52.766;6.884;2023-04-08T07:10:18;23.58;;;12.90;;
53044;SDS011;38930;52.766;6.884;2023-04-08T07:12:44;26.10;;;13.93;;
53044;SDS011;38930;52.766;6.884;2023-04-08T07:15:10;26.75;;;14.15;;
53044;SDS011;38930;52.766;6.884;2023-04-08T07:17:36;24.23;;;13.48;;
53044;SDS011;38930;52.766;6.884;2023-04-08T07:20:03;22.73;;;12.38;;
53044;SDS011;38930;52.766;6.884;2023-04-08T07:22:30;27.27;;;14.63;;
53044;SDS011;38930;52.766;6.884;2023-04-08T07:24:56;19.42;;;11.23;;
53044;SDS011;38930;52.766;6.884;2023-04-08T07:27:21;23.83;;;13.45;;
53044;SDS011;38930;52.766;6.884;2023-04-08T07:29:51;23.35;;;13.57;;
53044;SDS011;38930;52.766;6.884;2023-04-08T07:32:18;23.77;;;13.00;;
53044;SDS011;38930;52.766;6.884;2023-04-08T07:34:43;24.17;;;13.10;;
53044;SDS011;38930;52.766;6.884;2023-04-08T07:37:09;24.45;;;13.63;;
53044;SDS011;38930;52.766;6.884;2023-04-08T07:39:35;20.90;;;12.07;;
53044;SDS011;38930;52.766;6.884;2023-04-08T07:42:00;23.38;;;13.13;;
53044;SDS011;38930;52.766;6.884;2023-04-08T07:44:26;22.00;;;11.60;;
53044;SDS011;38930;52.766;6.884;2023-04-08T07:46:51;22.67;;;11.85;;
53044;SDS011;38930;52.766;6.884;2023-04-08T07:49:17;21.52;;;12.73;;
53044;SDS011;38930;52.766;6.884;2023-04-08T07:51:43;22.90;;;12.45;;
53044;SDS011;38930;52.766;6.884;2023-04-08T07:54:08;19.75;;;11.93;;
53044;SDS011;38930;52.766;6.884;2023-04-08T07:56:36;19.95;;;11.55;;
53044;SDS011;38930;52.766;6.884;2023-04-08T07:59:05;19.27;;;11.52;;
53044;SDS011;38930;52.766;6.884;2023-04-08T08:01:31;17.70;;;11.88;;
53044;SDS011;38930;52.766;6.884;2023-04-08T08:03:59;19.63;;;12.00;;
53044;SDS011;38930;52.766;6.884;2023-04-08T08:06:25;20.13;;;12.60;;
53044;SDS011;38930;52.766;6.884;2023-04-08T08:08:51;18.97;;;11.43;;
53044;SDS011;38930;52.766;6.884;2023-04-08T08:11:17;20.98;;;11.98;;
53044;SDS011;38930;52.766;6.884;2023-04-08T08:13:43;19.13;;;10.73;;
53044;SDS011;38930;52.766;6.884;2023-04-08T08:16:09;19.55;;;12.02;;
53044;SDS011;38930;52.766;6.884;2023-04-08T08:18:38;19.53;;;11.53;;
53044;SDS011;38930;52.766;6.884;2023-04-08T08:21:05;18.83;;;11.43;;
53044;SDS011;38930;52.766;6.884;2023-04-08T08:23:31;19.03;;;9.90;;
53044;SDS011;38930;52.766;6.884;2023-04-08T08:26:00;19.60;;;11.98;;
53044;SDS011;38930;52.766;6.884;2023-04-08T08:28:27;20.67;;;11.40;;
53044;SDS011;38930;52.766;6.884;2023-04-08T08:30:53;20.95;;;11.32;;
53044;SDS011;38930;52.766;6.884;2023-04-08T08:33:18;18.85;;;10.75;;
53044;SDS011;38930;52.766;6.884;2023-04-08T08:35:44;17.75;;;10.57;;
53044;SDS011;38930;52.766;6.884;2023-04-08T08:38:10;14.23;;;9.37;;
53044;SDS011;38930;52.766;6.884;2023-04-08T08:40:37;16.40;;;9.70;;
53044;SDS011;38930;52.766;6.884;2023-04-08T08:43:04;16.67;;;9.73;;
53044;SDS011;38930;52.766;6.884;2023-04-08T08:45:29;16.93;;;9.90;;
53044;SDS011;38930;52.766;6.884;2023-04-08T08:47:55;15.63;;;8.57;;
53044;SDS011;38930;52.766;6.884;2023-04-08T08:50:25;13.98;;;9.40;;
53044;SDS011;38930;52.766;6.884;2023-04-08T08:52:51;14.45;;;9.93;;
53044;SDS011;38930;52.766;6.884;2023-04-08T08:55:18;12.13;;;7.82;;
53044;SDS011;38930;52.766;6.884;2023-04-08T08:57:44;13.95;;;8.95;;
53044;SDS011;38930;52.766;6.884;2023-04-08T09:00:10;14.02;;;8.70;;
53044;SDS011;38930;52.766;6.884;2023-04-08T09:02:37;14.32;;;9.35;;
53044;SDS011;38930;52.766;6.884;2023-04-08T09:05:03;13.15;;;8.82;;
53044;SDS011;38930;52.766;6.884;2023-04-08T09:07:35;13.90;;;8.83;;
53044;SDS011;38930;52.766;6.884;2023-04-08T09:10:04;14.52;;;9.82;;
53044;SDS011;38930;52.766;6.884;2023-04-08T09:12:30;14.20;;;9.03;;
53044;SDS011;38930;52.766;6.884;2023-04-08T09:15:03;15.73;;;9.35;;
53044;SDS011;38930;52.766;6.884;2023-04-08T09:17:30;14.05;;;8.75;;
53044;SDS011;38930;52.766;6.884;2023-04-08T09:20:06;13.50;;;8.85;;
53044;SDS011;38930;52.766;6.884;2023-04-08T09:25:28;14.40;;;9.38;;
53044;SDS011;38930;52.766;6.884;2023-04-08T09:27:56;13.80;;;9.07;;
53044;SDS011;38930;52.766;6.884;2023-04-08T09:30:22;13.60;;;8.55;;
53044;SDS011;38930;52.766;6.884;2023-04-08T09:32:53;14.68;;;9.65;;
53044;SDS011;38930;52.766;6.884;2023-04-08T09:35:20;14.93;;;9.82;;
53044;SDS011;38930;52.766;6.884;2023-04-08T09:37:47;15.23;;;9.93;;
53044;SDS011;38930;52.766;6.884;2023-04-08T09:40:13;14.57;;;9.68;;
53044;SDS011;38930;52.766;6.884;2023-04-08T09:42:41;15.73;;;9.77;;
53044;SDS011;38930;52.766;6.884;2023-04-08T09:45:09;15.32;;;9.60;;
53044;SDS011;38930;52.766;6.884;2023-04-08T09:47:48;16.75;;;11.02;;
53044;SDS011;38930;52.766;6.884;2023-04-08T09:50:30;16.73;;;10.05;;
53044;SDS011;38930;52.766;6.884;2023-04-08T09:53:08;14.57;;;9.73;;
53044;SDS011;38930;52.766;6.884;2023-04-08T09:55:38;18.77;;;11.32;;
53044;SDS011;38930;52.766;6.884;2023-04-08T10:00:41;20.90;;;11.77;;
53044;SDS011;38930;52.766;6.884;2023-04-08T10:05:49;18.98;;;10.95;;
53044;SDS011;38930;52.766;6.884;2023-04-08T10:08:16;18.75;;;11.90;;
53044;SDS011;38930;52.766;6.884;2023-04-08T10:10:42;20.00;;;12.13;;
53044;SDS011;38930;52.766;6.884;2023-04-08T10:13:09;17.75;;;12.07;;
53044;SDS011;38930;52.766;6.884;2023-04-08T10:15:35;18.65;;;11.65;;
53044;SDS011;38930;52.766;6.884;2023-04-08T10:23:02;16.10;;;10.95;;
53044;SDS011;38930;52.766;6.884;2023-04-08T10:25:33;20.30;;;11.93;;
53044;SDS011;38930;52.766;6.884;2023-04-08T10:28:00;19.13;;;11.80;;
53044;SDS011;38930;52.766;6.884;2023-04-08T10:30:47;18.25;;;11.65;;
53044;SDS011;38930;52.766;6.884;2023-04-08T10:38:24;19.13;;;11.73;;
53044;SDS011;38930;52.766;6.884;2023-04-08T10:40:50;21.23;;;11.48;;
53044;SDS011;38930;52.766;6.884;2023-04-08T10:43:16;18.27;;;11.20;;
53044;SDS011;38930;52.766;6.884;2023-04-08T10:45:42;17.07;;;10.93;;
53044;SDS011;38930;52.766;6.884;2023-04-08T10:48:19;17.30;;;11.02;;
53044;SDS011;38930;52.766;6.884;2023-04-08T10:53:22;19.27;;;11.45;;
53044;SDS011;38930;52.766;6.884;2023-04-08T10:55:52;15.45;;;10.40;;
53044;SDS011;38930;52.766;6.884;2023-04-08T10:58:18;17.17;;;10.23;;
53044;SDS011;38930;52.766;6.884;2023-04-08T11:00:43;16.08;;;10.00;;
53044;SDS011;38930;52.766;6.884;2023-04-08T11:03:09;15.80;;;9.52;;
53044;SDS011;38930;52.766;6.884;2023-04-08T11:05:36;15.98;;;9.57;;
53044;SDS011;38930;52.766;6.884;2023-04-08T11:08:03;13.55;;;8.93;;
53044;SDS011;38930;52.766;6.884;2023-04-08T11:10:30;16.88;;;9.68;;
53044;SDS011;38930;52.766;6.884;2023-04-08T11:13:00;17.27;;;10.70;;
53044;SDS011;38930;52.766;6.884;2023-04-08T11:15:28;16.40;;;10.95;;
53044;SDS011;38930;52.766;6.884;2023-04-08T11:17:55;16.20;;;10.20;;
53044;SDS011;38930;52.766;6.884;2023-04-08T11:20:20;17.35;;;10.10;;
53044;SDS011;38930;52.766;6.884;2023-04-08T11:22:46;15.90;;;9.60;;
53044;SDS011;38930;52.766;6.884;2023-04-08T11:25:12;15.52;;;9.13;;
53044;SDS011;38930;52.766;6.884;2023-04-08T11:27:38;15.27;;;9.05;;
53044;SDS011;38930;52.766;6.884;2023-04-08T11:30:05;14.07;;;9.23;;
53044;SDS011;38930;52.766;6.884;2023-04-08T11:32:33;16.90;;;9.15;;
53044;SDS011;38930;52.766;6.884;2023-04-08T11:35:00;16.10;;;10.90;;
53044;SDS011;38930;52.766;6.884;2023-04-08T11:37:40;17.90;;;10.55;;
53044;SDS011;38930;52.766;6.884;2023-04-08T11:40:09;16.70;;;11.13;;
53044;SDS011;38930;52.766;6.884;2023-04-08T11:42:36;19.60;;;11.25;;
53044;SDS011;38930;52.766;6.884;2023-04-08T11:45:10;18.58;;;10.90;;
53044;SDS011;38930;52.766;6.884;2023-04-08T11:47:36;22.17;;;11.90;;
53044;SDS011;38930;52.766;6.884;2023-04-08T11:50:03;18.70;;;11.35;;
53044;SDS011;38930;52.766;6.884;2023-04-08T11:52:39;18.45;;;11.35;;
53044;SDS011;38930;52.766;6.884;2023-04-08T11:55:05;16.13;;;9.30;;
53044;SDS011;38930;52.766;6.884;2023-04-08T11:57:31;18.48;;;10.52;;
53044;SDS011;38930;52.766;6.884;2023-04-08T11:59:56;19.60;;;11.38;;
53044;SDS011;38930;52.766;6.884;2023-04-08T12:02:22;19.30;;;11.35;;
53044;SDS011;38930;52.766;6.884;2023-04-08T12:04:48;20.50;;;11.73;;
53044;SDS011;38930;52.766;6.884;2023-04-08T12:07:14;18.60;;;10.52;;
53044;SDS011;38930;52.766;6.884;2023-04-08T12:09:39;18.75;;;11.10;;
53044;SDS011;38930;52.766;6.884;2023-04-08T12:12:05;17.15;;;11.23;;
53044;SDS011;38930;52.766;6.884;2023-04-08T12:14:31;18.33;;;11.20;;
53044;SDS011;38930;52.766;6.884;2023-04-08T12:16:56;18.98;;;11.68;;
53044;SDS011;38930;52.766;6.884;2023-04-08T12:19:22;19.58;;;10.63;;
53044;SDS011;38930;52.766;6.884;2023-04-08T12:21:48;23.08;;;11.48;;
53044;SDS011;38930;52.766;6.884;2023-04-08T12:24:13;20.15;;;11.30;;
53044;SDS011;38930;52.766;6.884;2023-04-08T12:26:39;19.52;;;12.10;;
53044;SDS011;38930;52.766;6.884;2023-04-08T12:29:04;22.55;;;12.27;;
53044;SDS011;38930;52.766;6.884;2023-04-08T12:31:30;19.23;;;12.20;;
53044;SDS011;38930;52.766;6.884;2023-04-08T12:33:56;20.67;;;12.75;;
53044;SDS011;38930;52.766;6.884;2023-04-08T12:36:21;21.77;;;13.57;;
53044;SDS011;38930;52.766;6.884;2023-04-08T12:38:47;22.38;;;12.95;;
53044;SDS011;38930;52.766;6.884;2023-04-08T12:41:12;23.88;;;12.93;;
53044;SDS011;38930;52.766;6.884;2023-04-08T12:43:38;24.02;;;13.32;;
53044;SDS011;38930;52.766;6.884;2023-04-08T12:46:04;22.65;;;13.70;;
53044;SDS011;38930;52.766;6.884;2023-04-08T12:48:30;23.67;;;13.77;;
53044;SDS011;38930;52.766;6.884;2023-04-08T12:50:56;24.35;;;13.25;;
53044;SDS011;38930;52.766;6.884;2023-04-08T12:53:22;24.75;;;14.07;;
53044;SDS011;38930;52.766;6.884;2023-04-08T12:55:48;23.85;;;14.77;;
53044;SDS011;38930;52.766;6.884;2023-04-08T12:58:15;22.77;;;14.68;;
53044;SDS011;38930;52.766;6.884;2023-04-08T13:00:41;28.45;;;15.45;;
53044;SDS011;38930;52.766;6.884;2023-04-08T13:03:10;24.85;;;15.63;;
53044;SDS011;38930;52.766;6.884;2023-04-08T13:05:37;24.90;;;14.02;;
53044;SDS011;38930;52.766;6.884;2023-04-08T13:08:02;28.45;;;15.38;;
53044;SDS011;38930;52.766;6.884;2023-04-08T13:10:28;24.88;;;14.68;;
53044;SDS011;38930;52.766;6.884;2023-04-08T13:12:53;26.33;;;16.05;;
53044;SDS011;38930;52.766;6.884;2023-04-08T13:15:19;26.75;;;15.00;;
53044;SDS011;38930;52.766;6.884;2023-04-08T13:17:45;25.33;;;14.52;;
53044;SDS011;38930;52.766;6.884;2023-04-08T13:20:10;24.73;;;14.98;;
53044;SDS011;38930;52.766;6.884;2023-04-08T13:22:36;26.77;;;15.40;;
53044;SDS011;38930;52.766;6.884;2023-04-08T13:25:02;23.98;;;15.15;;
53044;SDS011;38930;52.766;6.884;2023-04-08T13:27:30;28.10;;;15.73;;
53044;SDS011;38930;52.766;6.884;2023-04-08T13:29:56;29.08;;;15.68;;
53044;SDS011;38930;52.766;6.884;2023-04-08T13:32:21;25.88;;;15.00;;
53044;SDS011;38930;52.766;6.884;2023-04-08T13:34:47;28.08;;;16.40;;
53044;SDS011;38930;52.766;6.884;2023-04-08T13:37:12;26.27;;;16.08;;
53044;SDS011;38930;52.766;6.884;2023-04-08T13:39:38;25.90;;;15.15;;
53044;SDS011;38930;52.766;6.884;2023-04-08T13:42:03;25.83;;;15.43;;
53044;SDS011;38930;52.766;6.884;2023-04-08T13:44:29;30.08;;;15.07;;
53044;SDS011;38930;52.766;6.884;2023-04-08T13:46:57;27.23;;;16.55;;
53044;SDS011;38930;52.766;6.884;2023-04-08T13:49:22;29.15;;;17.27;;
53044;SDS011;38930;52.766;6.884;2023-04-08T13:51:48;30.88;;;16.85;;
53044;SDS011;38930;52.766;6.884;2023-04-08T13:54:13;29.65;;;16.70;;
53044;SDS011;38930;52.766;6.884;2023-04-08T13:56:39;29.67;;;16.20;;
53044;SDS011;38930;52.766;6.884;2023-04-08T13:59:05;28.95;;;16.60;;
53044;SDS011;38930;52.766;6.884;2023-04-08T14:01:31;29.63;;;17.73;;
53044;SDS011;38930;52.766;6.884;2023-04-08T14:03:57;24.80;;;16.08;;
53044;SDS011;38930;52.766;6.884;2023-04-08T14:06:22;30.27;;;16.50;;
53044;SDS011;38930;52.766;6.884;2023-04-08T14:08:48;27.85;;;17.02;;
53044;SDS011;38930;52.766;6.884;2023-04-08T14:11:14;32.55;;;17.17;;
53044;SDS011;38930;52.766;6.884;2023-04-08T14:13:39;30.90;;;17.25;;
53044;SDS011;38930;52.766;6.884;2023-04-08T14:16:05;29.33;;;16.38;;
53044;SDS011;38930;52.766;6.884;2023-04-08T14:18:30;30.98;;;17.20;;
53044;SDS011;38930;52.766;6.884;2023-04-08T14:20:56;29.15;;;17.38;;
53044;SDS011;38930;52.766;6.884;2023-04-08T14:23:22;37.05;;;17.70;;
53044;SDS011;38930;52.766;6.884;2023-04-08T14:25:47;30.58;;;16.95;;
53044;SDS011;38930;52.766;6.884;2023-04-08T14:28:13;37.08;;;18.05;;
53044;SDS011;38930;52.766;6.884;2023-04-08T14:30:38;33.15;;;18.90;;
53044;SDS011;38930;52.766;6.884;2023-04-08T14:33:04;29.90;;;18.52;;
53044;SDS011;38930;52.766;6.884;2023-04-08T14:35:30;33.90;;;17.73;;
53044;SDS011;38930;52.766;6.884;2023-04-08T14:37:55;33.10;;;18.17;;
53044;SDS011;38930;52.766;6.884;2023-04-08T14:40:21;30.88;;;17.98;;
53044;SDS011;38930;52.766;6.884;2023-04-08T14:42:47;31.08;;;18.05;;
53044;SDS011;38930;52.766;6.884;2023-04-08T14:45:14;31.95;;;18.42;;
53044;SDS011;38930;52.766;6.884;2023-04-08T14:47:39;32.07;;;17.83;;
53044;SDS011;38930;52.766;6.884;2023-04-08T14:50:05;32.55;;;18.60;;
53044;SDS011;38930;52.766;6.884;2023-04-08T14:52:31;29.98;;;19.40;;
53044;SDS011;38930;52.766;6.884;2023-04-08T14:54:57;32.97;;;19.58;;
53044;SDS011;38930;52.766;6.884;2023-04-08T14:57:26;34.67;;;19.85;;
53044;SDS011;38930;52.766;6.884;2023-04-08T14:59:52;36.85;;;21.00;;
53044;SDS011;38930;52.766;6.884;2023-04-08T15:02:18;34.75;;;20.77;;
53044;SDS011;38930;52.766;6.884;2023-04-08T15:04:43;34.28;;;20.10;;
53044;SDS011;38930;52.766;6.884;2023-04-08T15:07:09;37.13;;;21.02;;
53044;SDS011;38930;52.766;6.884;2023-04-08T15:09:35;37.28;;;21.27;;